CheckWX is a tool to help pilots better visualize weather data.  It is not intended as a substitute for an official pre-flight weather briefing.

11:15:20 UTC

FALA METAR
Lanseria Airport
Johannesburg, South Africa
Current

1 hour ago

FALA 151000Z VRB05KT 9999 SCT045 31/07 Q1024 NOSIG
Observed
Oct-15 @ 10:00 UTC
Wind
  • Variable at 5 KTS
Visibility
10,000+ meters
Flight Rules
VFR
Cloud Levels
  • Scattered at 4,500' AGL
Temperature
31°C / 88°F
Dewpoint
C / 45°F
Humidity
22%
Altimeter
30.24" Hg
Pressure
1023.92 hPa
Previous

2 hours ago

FALA 150900Z VRB06KT 9999 SCT040 28/06 Q1025 NOSIG
Observed
Oct-15 @ 09:00 UTC
Wind
  • Variable at 6 KTS
Visibility
10,000+ meters
Flight Rules
VFR
Cloud Levels
  • Scattered at 4,000' AGL
Temperature
28°C / 82°F
Dewpoint
C / 43°F
Humidity
25%
Altimeter
30.27" Hg
Pressure
1024.92 hPa
Previous

3 hours ago

FALA 150840Z VRB04KT 9999 FEW045 28/08 Q1026 NOSIG
Observed
Oct-15 @ 08:40 UTC
Wind
  • Variable at 4 KTS
Visibility
10,000+ meters
Flight Rules
VFR
Cloud Levels
  • Few at 4,500' AGL
Temperature
28°C / 82°F
Dewpoint
C / 46°F
Humidity
28%
Altimeter
30.3" Hg
Pressure
1025.92 hPa